Domäner & webbhotell från Surftown

Just nu erbjuder Surftown 66 olika toppdomäner.

Surtown Webbhotell & Domäner

Surtown startades 2003, som dotterbolag till Cohaesio Group, med mångårig erfarenhet inom IT-outsourcing, webbhotell och utveckling av mjukvarulösningar. De erbjuder enligt sig själva sina kunder mest för pengarna. Surtown erbjuder ett webbhotell med många funktioner, mycket hög uppdateringsgrad och en av branschens bästa supports. Surftown är specialist inom webbhotell, registrering av domäner och webbdesign.

Webbhotell med prisade lösningar

Surftown har hr varit bäst i test i flera konsumentundersökningar. De har vunnit tre gånger med motivering att de levererar bra och mycket användarvänliga webbhotellösningar med stora möjligheter för avancerade inställningar. De har en öppen design i sin kontrollpanel som ger dig full kontroll över din webbplats.

Professionella resultat

Här kan du upprätta en hemsida inom 20 sekunder med ett kvalitetsverktyg som Wordpress. De ger dig tillgång till marknadens mest användbara lösningar, som ger dig professionella resultat oavsett om du är nybörjare eller proffs - utan krävande programmering.

Kundsupporten ska vara bäst

Deras supportavdelning är alltid pålitlig. Målet är att ge dig den kompetenta och positiva medarbetare som löser dina problem. Deras support hanterar fler än 7000 ärenden varje månad på flera olika språk. Kundtelefonsamtal besvaras inom 30 sekunder och chattförfrågningar ska vara besvarade inom 5 minuter. De lägger stora resurser på att du ska ha tillgång till marknadens bästa support och det uppskattas av kunderna.

Stabil och säker

Surftown har kompetenta tekniker som sköter alla säkerhetsuppdateringar och system i deras servrar. Du behöver inte bekymra dig över om din webbsida är online eller inte - de har koll på läget. Den biten kan du lämna åt Surftown så kan du ägna dig åt innehållet på din sida.

Pengarna tillbaka garanti

Hos Surftown har du alltid en 'pengarna tillbaka garanti' som gäller i 14 dagar från dagen du tecknade. Du får möjlighet att testa utan binda dig och får sedan tillbaks din investering om du inte är helt nöjd.

Lämna en kommentar för Surftown

Kommentarer (0)

Ingen kommentar än. Var först med att kommentera.
1000
Captcha bild

Tyvärr finns inga aktuella domänkampanjer just nu.Här kan du se alla historiska domänkampanjer.

Alla domäner från Surftown

Toppdomän Land Status År Pris Förnya 1 år Registrering & förnyelse 1 år Senast Kontrollerad Registrera
.SE Sverige Aktiv 1986 136 136 272 2020-08-12  
.COM Generisk toppdomän Aktiv 1985 229 229 458 2020-08-12  
.NU Niue Aktiv 1997 229 229 458 2020-08-12  
.EU Europeiska unionen Aktiv 2005 229 229 458 2020-08-12  
.ME Montenegro Aktiv 2006 312.5 398 710.5 2020-08-12  
.NET Generisk toppdomän Aktiv 1985 229 229 458 2020-08-12  
.ORG DNS Aktiv 1985 229 229 458 2020-08-12  
.BIZ Generisk toppdomän Aktiv 2001 229 229 458 2020-08-12  
.INFO Generisk toppdomän Aktiv 2001 229 229 458 2020-08-12  
.MOBI Generisk toppdomän Aktiv 2006 458 458 916 2020-08-12  
.NAME Generisk toppdomän Aktiv 2001 229 229 458 2020-08-12  
.TV Tuvalu Aktiv 1996 499 1099 1598 2020-08-12  
.DK Danmark Aktiv 1987 99 99 198 2020-08-12  
.BE Belgien Aktiv 1988 89 89 178 2020-08-12  
.AT Österrike Aktiv 1988 135 135 270 2020-08-12  
.CO.UK Storbrittanien Aktiv 1985 249 249 498 2020-08-12  
.ORG.UK Storbrittanien Aktiv 1985 359 1159 1518 2020-08-12  
.CO Colombia Aktiv 1991 298 598 896 2020-08-12  
.CH Schweiz Aktiv 1987 119 249 368 2020-08-12  
.WS Samoa Aktiv 1995 363 729 1092 2020-08-12  
.BZ Belize Aktiv 1991 359 1159 1518 2020-08-12  
.IO Brittiska territoriet i Indiska oceanen Aktiv 1997 1299 729 2028 2020-08-12  
.NO Norge Aktiv 1987 209 209 418 2020-08-12  
.CZ Tjeckien Aktiv 1993 199 1399 1598 2020-08-12  
.GL Grönland Aktiv 1994 498 498 996 2020-08-12  
.IS Island Aktiv 1986 498 498 996 2020-08-12  
.RO Rumänien Aktiv 1993 998 998 1996 2020-08-12  
.SM San Marino Aktiv 1995 1598 1598 3196 2020-08-12  
.SI Slovenien Aktiv 1993 1430 729 2159 2020-08-12  
.PR Puerto Rico Aktiv 1989 14998 14998 29996 2020-08-12  
.CD Kongo-Kinshasa Aktiv 1997 2200 1079 3279 2020-08-12  
.BIKE Generic Aktiv 499 1899 2398 2020-08-12  
.CAMERA Generic Aktiv 299 329 628 2020-08-12  
.ST São Tomé och Príncipe Aktiv 2011 1430 1899 3329 2020-08-12  
.SO Somalia Aktiv 1997 1890 1399 3289 2020-08-12  
.HK Hongkong Aktiv 1990 1599 729 2328 2020-08-12  
.LA Laos Aktiv 1996 1599 729 2328 2020-08-12  
.SG Singapore Aktiv 1988 1430 729 2159 2020-08-12  
.TW Taiwan Aktiv 1989 1244 1099 2343 2020-08-12  
.UZ Uzbekistan Aktiv 1995 1698 1698 3396 2020-08-12  
.TO Tonga Aktiv 1995 310 1399 1709 2020-08-12  
.TM Turkmenistan Aktiv 1997 11980 11980 23960 2020-08-12  
.CLOTHING Generic Aktiv 499 1159 1658 2020-08-12  
.GALLERY Generic Aktiv 199 249 448 2020-08-12  
.GRAPHICS Generic Aktiv 359 1399 1758 2020-08-12  
.GURU Generic Aktiv 499 1099 1598 2020-08-12  
.HOLDINGS Generic Aktiv 765 1399 2164 2020-08-12  
.LAND Generic Aktiv 504 1399 1903 2020-08-12  
.PHOTOGRAPHY Generic Aktiv 199 249 448 2020-08-12  
.SINGLES Generic Aktiv 765 1164 1929 2020-08-12  
.TECHNOLOGY Generic Aktiv 359 1899 2258 2020-08-12  
.TODAY Generic Aktiv 199 249 448 2020-08-12  
.VENTURES Generic Aktiv 765 1164 1929 2020-08-12  
.TATTOO Generic Aktiv 299 329 628 2020-08-12  
.EMAIL Generic Aktiv 199 249 448 2020-08-12  
.SUPPORT Generic Aktiv 359 1099 1458 2020-08-12  
.TIPS Generic Aktiv 359 729 1088 2020-08-12  
.DOMAINS Generic Aktiv 499 1099 1598 2020-08-12  
.ROCKS 90 249 339 2020-08-12  
.CLUB 178 249 427 2020-08-12  
.CONSULTING 499 1914 2413 2020-08-12  
.MENU 1430 729 2159 2020-08-12  
.GRATIS 359 729 1088 2020-08-12  
.GUIDE 499 729 1228 2020-08-12  
.LIFE 499 1164 1663 2020-08-12  
.WEDDING 329 329 658 2020-08-12  

* Alla priser är beräknade på att du registrerar 1 domän. Vissa registrarer ger mängdrabatt vid förnyelse av många domäner. Alla priser är exkl. moms.

Alla toppdomäner

I vår lista visar vi de mest populära toppdomänerna för den svenska marknaden. Vi har dock priser för 2124 olika billiga domäner.

Domänkampanjer?

Vi samlar alla domänkampanjer vi ser här för att du ska kunna se såväl aktuella domänkampanjer som historiska kampanjer på olika toppdomäner.

Kampanjer på svenska webbhotell

Är du istället på jakt efter ett nytt svenskt webbhotell? Här samlar vi aktuella erbjudanden på olika webbhotell på den svenska marknaden!

Domänkampanjer & Kampanjer Webbhotell

Här listar vi aktiva kampanjer på olika toppdomäner och webbhotell. Tipsa oss gärna om vi missat någon kampanj, antingen på Twitter eller kontakta oss via vårt kontaktformulär!


Kampanjer Webbhotell

Tyvärr finns inga aktuella kampanjer på webbhotell just nu. Här kan du se alla historiska webbhotellkampanjer.

Domänkampanjer

Just nu har vi 9 kampanjer för domäner.

Stablehost: .SE

5 kr

Gilltig: 2020-08-10-2020-08-16

FS Data: .SE

5 kr

Gilltig: 2020-08-10-2020-08-16

Miss Domain: .SE

5 kr

Gilltig: 2020-08-10-2020-08-16

EgenSajt: .SE

19 kr

Gilltig: 2020-08-10-2020-08-16

Loopia: .SITE

29 kr

Gilltig: 2020-06-01-2020-12-31

EgenSajt: .XZY

29 kr

Gilltig: 2020-07-24-2020-12-31

EgenSajt: .SPACE

29 kr

Gilltig: 2020-07-24-2020-12-31

EgenSajt: .FUN

29 kr

Gilltig: 2020-07-24-2020-08-31

EgenSajt: .SHOP

39 kr

Gilltig: 2020-07-24-2020-12-31

Följ oss på Twitter

Följ oss för att få notiser om när det finns nya kampanjer.

Kontakta oss